CheckWX is a tool to help pilots better visualize weather data.  It is not intended as a substitute for an official pre-flight weather briefing.

11:57:50 UTC

KHPN TAF
Westchester County Airport
White Plains, New York, USA
KHPN 151136Z 1512/1612 34005KT P6SM FEW150 FEW250 FM151600 32006KT P6SM FEW250 FM151700 29005KT P6SM FEW250 FM151900 25005KT P6SM SCT250 FM152200 VRB02KT P6SM SCT250 FM160800 13006KT P6SM SCT040 BKN250 AMD NOT SKED

Oct-15@
12:00 UTC

Oct-15 @ 12:00 UTC

Oct-15@
16:00 UTC

Oct-15 @ 16:00 UTC

KHPN 151136Z 1512/1612 34005KT P6SM FEW150 FEW250
Wind
  • 340° at 5 KTS
Cloud Levels
  • Few at 15,000' AGL
  • Few at 25,000' AGL

Oct-15@
16:00 UTC

Oct-15 @ 16:00 UTC

Oct-15@
17:00 UTC

Oct-15 @ 17:00 UTC

FM151600 32006KT P6SM FEW250

From

From Standard forecast or significant change

Wind
  • 320° at 6 KTS
Cloud Levels
  • Few at 25,000' AGL

Oct-15@
17:00 UTC

Oct-15 @ 17:00 UTC

Oct-15@
19:00 UTC

Oct-15 @ 19:00 UTC

FM151700 29005KT P6SM FEW250

From

From Standard forecast or significant change

Wind
  • 290° at 5 KTS
Cloud Levels
  • Few at 25,000' AGL

Oct-15@
19:00 UTC

Oct-15 @ 19:00 UTC

Oct-15@
22:00 UTC

Oct-15 @ 22:00 UTC

FM151900 25005KT P6SM SCT250

From

From Standard forecast or significant change

Wind
  • 250° at 5 KTS
Cloud Levels
  • Scattered at 25,000' AGL

Oct-15@
22:00 UTC

Oct-15 @ 22:00 UTC

Oct-16@
08:00 UTC

Oct-16 @ 08:00 UTC

FM152200 VRB02KT P6SM SCT250

From

From Standard forecast or significant change

Wind
  • Variable at 2 KTS
Cloud Levels
  • Scattered at 25,000' AGL

Oct-16@
08:00 UTC

Oct-16 @ 08:00 UTC

Oct-16@
12:00 UTC

Oct-16 @ 12:00 UTC

FM160800 13006KT P6SM SCT040 BKN250 AMD NOT SKED

From

From Standard forecast or significant change

Wind
  • 130° at 6 KTS
Cloud Levels
  • Scattered at 4,000' AGL
  • Broken at 25,000' AGL